Tiempo atmosférico en la estación meteorológica de Salamanca Aeropuerto, Salamanca (790 m.)



Fecha
DESCASC
Temp. máxima en grados centígrados (hora)
DESCASC
Temp. mínima en grados centígrados (hora)
DESCASC
Temp. media en grados centígrados
DESCASC
Racha de viento máxima en m/sg (hora)
DESCASC
Velocidad máxima media en intervalos de 10 minutos(hora)
DESCASC
Precipitaciones diarias en mm
DESCASC
Precipitaciones de 00:00 a 06:00 en mm
DESCASC
Precipitaciones de 06:00 a 12:00 en mm
DESCASC
Precipitaciones de 12:00 a 18:00 en mm
DESCASC
Precipitaciones de 18:00 a 24:00 en mm
DESCASC
22-11-2020 17.9 (15:20) -2.2 (08:10) 7.8 3.61 (13:50) -- (--) 0 0 0 0 0
21-11-2020 15.8 (16:20) -1.9 (08:00) 7 6.11 (03:30) 4.44 (02:50) 0 0 0 0 0
20-11-2020 12.7 (15:00) 1.6 (08:20) 7.1 8.89 (14:10) 5.83 (12:10) 0 0 0 0 0
19-11-2020 18.5 (16:20) 2.1 (00:00) 10.3 6.67 (12:40) 4.72 (12:40) 0 0 0 0 0
18-11-2020 23.4 (15:30) 3.1 (00:00) 13.2 8.33 (15:30) 3.06 (01:50) 0 0 0 0 0
17-11-2020 22.5 (15:50) 0.8 (00:00) 11.7 6.67 (16:20) 5 (16:20) 0 0 0 0 0
16-11-2020 16.7 (16:10) 4.6 (00:00) 10.7 6.67 (00:40) 4.17 (00:40) 0 0 0 0 0
15-11-2020 18.4 (13:00) 11.1 (00:00) 14.8 12.78 (13:00) 9.17 (13:20) 0 0 0 0 0
14-11-2020 17.5 (14:50) 5.7 (00:00) 11.6 9.72 (14:20) 7.22 (14:30) 0 0 0 0 0
13-11-2020 16 (16:20) 4.7 (00:00) 10.3 6.11 (13:50) 4.17 (13:50) 0 0 0 0 0
12-11-2020 16.5 (14:50) 3.8 (00:00) 10.1 4.72 (13:20) 2.5 (15:10) 0 0 0 0 0
11-11-2020 15.8 (14:00) 5.6 (00:00) 10.7 5 (14:50) 3.06 (14:40) 0 0 0 0 0
10-11-2020 13.3 (15:30) 2.6 (00:00) 8 5 (16:20) 3.89 (17:40) 0 0 0 0 0
09-11-2020 15.7 (15:00) 3.3 (00:00) 9.5 6.67 (14:20) 4.17 (14:30) 1.1 1.1 0 0 0
08-11-2020 17.6 (13:30) 4.7 (00:00) 11.2 12.78 (13:30) 8.89 (13:40) 4.9 0 0 0.7 4.2
07-11-2020 15.7 (14:10) 8.1 (00:00) 11.9 11.39 (14:10) 8.06 (17:10) 3 2.5 0.5 0 0
06-11-2020 19.1 (14:40) 8.7 (00:00) 13.9 17.5 (11:50) 10.28 (11:50) 2.7 0 0.1 0 2.6
05-11-2020 13.6 (15:50) 6.4 (00:00) 10 16.11 (11:10) 10.56 (11:00) 4.8 0 2.5 0.1 2.2
04-11-2020 7.8 (15:00) 2.4 (00:00) 5.1 11.67 (23:10) 8.33 (23:59) -- 0 -- 1.8 0.3
03-11-2020 15 (15:00) 5.3 (00:00) 10.2 10.83 (21:00) 7.78 (21:30) 0.7 0.7 0 0 0
02-11-2020 18.2 (14:10) 11.4 (00:00) 14.8 4.17 (11:20) 2.78 (11:30) 0 0 0 0 0
01-11-2020 -- (--) -- (--) -- -- (--) -- (--) -- -- -- 0 0
31-10-2020 22 (14:50) 2.7 (00:00) 12.4 6.67 (15:10) 4.72 (16:40) 0 0 0 0 0
30-10-2020 23.1 (16:00) 1.4 (00:00) 12.3 4.72 (11:30) 2.22 (14:00) 0 0 0 0 0
29-10-2020 19.1 (16:40) 4.3 (00:00) 11.7 5.83 (14:50) 3.61 (17:20) 0 0 0 0 0
28-10-2020 17.9 (15:20) 5 (00:00) 11.4 11.39 (11:50) 8.33 (12:00) 0 0 0 0 0
27-10-2020 13.4 (15:00) 3.3 (00:00) 8.3 12.78 (12:40) 8.33 (12:40) 0 0 0 0 0
26-10-2020 11.7 (14:50) 3.4 (00:00) 7.5 11.39 (15:00) 7.5 (15:00) 0 0 0 0 0

Gráficas

Temp. máximas Temp. mínimas Temp. medias Precipitaciones Rachas de viento máximas Velocidades máximas media en intervalos de 10 minutos

Datos horarios

Fecha y hora oficial Temperatura (ºC) Velocidad del viento (km/h) Dirección del viento Racha (km/h) Dirección de racha Precipitación (mm) Presión (hPa) Tendencia (hPa) Humedad (%)
2020-11-24 23:00:00 3.5 5 Sur 13 Sur 0 926.3 -0.8 89
2020-11-24 22:00:00 5.3 13 Sur 17 Sudoeste 0 926.5 -0.8 89
2020-11-24 21:00:00 4.7 8 Sur 15 Sur 0 927 -- 86
2020-11-24 20:00:00 5.2 0 Calma 11 Sudoeste 0 927.1 -- 81
2020-11-24 19:00:00 7.1 7 Sur 15 Sudoeste 0 927.3 -- 73
2020-11-24 18:00:00 11.8 4 Sur 11 Oeste 0 927.2 -- 61
2020-11-24 17:00:00 12.7 7 Noroeste 17 Oeste 0 927 -- 62
2020-11-24 16:00:00 12.9 8 Sur 15 Oeste 0 927.3 -- 57
2020-11-24 15:00:00 13.5 7 Oeste 18 Oeste 0 927.9 -- 52
2020-11-24 14:00:00 13.3 10 Oeste 22 Oeste 0 928.8 -- 56
2020-11-24 13:00:00 12.4 13 Noroeste 24 Oeste 0 929.7 -- 57
2020-11-24 12:00:00 11.2 9 Oeste 13 Oeste 0 930.7 -- 64
2020-11-24 11:00:00 8.3 0 Calma 5 Sur 0 931 -- 77
2020-11-24 10:00:00 2.2 0 Calma 5 Nordeste 0 931.2 -- 95
2020-11-24 09:00:00 -1.4 3 Nordeste 9 Este 0 930.9 -- 95
2020-11-24 08:00:00 -1.4 5 Nordeste 8 Nordeste 0 930.9 -- 95
2020-11-24 07:00:00 -1.3 4 Este 8 Este 0 930.7 -- 93
2020-11-24 06:00:00 -1.7 3 Este 5 Sudeste 0 930.7 -- 94
2020-11-24 05:00:00 -1.9 2 Sudeste 5 Sur 0 930.9 -- 91
2020-11-24 04:00:00 -1.5 3 Este 5 Este 0 931.3 -- 94
2020-11-24 03:00:00 -1 3 Este 5 Este 0 931.7 -- 92
2020-11-24 02:00:00 -0.5 3 Sudeste 8 Este 0 932.1 -- 91
2020-11-24 01:00:00 -0.6 6 Este 9 Este 0 932.6 -- 92
2020-11-24 00:00:00 -0.1 3 Sudeste 9 Sur 0 933 -- 91
2020-11-23 23:00:00 1.1 2 Sur 5 Sur 0 933.4 -- 89
2020-11-23 22:00:00 2.1 2 Nordeste 4 Nordeste 0 933.5 -- 86
2020-11-23 21:00:00 3 0 Calma -- -- 0 933.5 -- 81
2020-11-23 20:00:00 5.1 5 Sudeste 8 Sudeste 0 933.3 -- 74
2020-11-23 19:00:00 7.4 0 Calma 8 Este 0 933.4 -- 60
2020-11-23 18:00:00 11.7 8 Este 13 Este 0 933.3 -- 43
2020-11-23 17:00:00 14.8 9 Este 15 Este 0 933.2 -- 33
2020-11-23 16:00:00 15.2 12 Este 21 Este 0 933.3 -- 31
2020-11-23 15:00:00 15.1 13 Este 22 Nordeste 0 933.6 -- 33
2020-11-23 14:00:00 14.6 13 Este 21 Este 0 934.1 -- 44
2020-11-23 13:00:00 13.3 9 Este 15 Este 0 934.8 -- 52
2020-11-23 12:00:00 10.9 8 Este 15 Este 0 935.4 -- 63
2020-11-23 11:00:00 7.2 0 Calma 4 Sudeste 0 935.7 -- 74
2020-11-23 10:00:00 3.3 0 Calma 8 Sudoeste 0 935.6 -- 87
2020-11-23 09:00:00 -1.8 5 Sudoeste -- -- 0 935.3 -- 94
2020-11-23 08:00:00 -1.9 0 Calma 5 Sudeste 0 935 -- 95
2020-11-23 07:00:00 -1.9 4 Este -- -- -- 934.8 -- 97
2020-11-23 06:00:00 -1.8 0 Calma 4 Este 0 934.8 -- 96
2020-11-23 05:00:00 -1.5 0 Calma 4 Sur 0 935 -- 96
2020-11-23 04:00:00 -0.6 -- -- -- -- 0 935.2 -- 93
2020-11-23 03:00:00 -0.7 5 Nordeste -- -- -- 935.1 -- 96
2020-11-23 02:00:00 -0.3 2 Este 5 Este 0 935.1 -- 96
2020-11-23 01:00:00 0.2 3 Este 8 Sudeste 0 935.5 -- 95
2020-11-23 00:00:00 0.7 0 Calma 4 Sur 0 -- -- 92
2020-11-22 23:00:00 2 0 Calma -- -- 0 935.7 -- 89
2020-11-22 22:00:00 2.7 0 Calma 5 Sudeste 0 935.4 -- 90
2020-11-22 21:00:00 4.5 -- -- -- -- -- 935.1 -- 84
2020-11-22 20:00:00 5.9 -- -- -- -- 0 934.7 -- 75
2020-11-22 19:00:00 8.5 0 Calma 8 Este 0 934.4 -- 63
2020-11-22 18:00:00 13.6 4 Norte 8 Nordeste 0 934.2 -- 46
2020-11-22 17:00:00 17.4 0 Calma 8 Nordeste 0 934 -- 35
2020-11-22 16:00:00 17.4 4 Oeste 9 Oeste 0 933.9 -- 33
2020-11-22 15:00:00 16.9 2 Noroeste 13 Noroeste 0 934.3 -- 35
2020-11-22 14:00:00 16 6 Oeste 13 Noroeste 0 934.8 -- 35
2020-11-22 13:00:00 14.7 0 Calma 8 Sur 0 935.5 -- 46
2020-11-22 12:00:00 12.4 0 Calma 5 Sudeste 0 936.2 -- 58
2020-11-22 11:00:00 8.1 0 Calma 5 Este 0 936.4 -- 73
2020-11-22 10:00:00 3.8 2 Este 5 Este 0 936.2 -- 89
2020-11-22 09:00:00 -0.7 5 Nordeste 8 Este 0 935.9 -- 95
2020-11-22 08:00:00 -1.5 0 Calma 8 Sudeste 0 935.6 -- 94
2020-11-22 07:00:00 -1.3 0 Calma 5 Nordeste 0 935.4 -- 93
2020-11-22 06:00:00 -1 4 Este 8 Este 0 935.2 -- 94
2020-11-22 05:00:00 -1 7 Este 9 Este 0 935 -- 94
2020-11-22 04:00:00 -0.7 0 Calma 5 Sur 0 934.9 -- 93
2020-11-22 03:00:00 -0.4 0 Calma 2 Noroeste 0 934.7 -- 94
2020-11-22 02:00:00 -0.1 0 Calma 5 Este 0 934.8 -- 93
2020-11-22 01:00:00 0.5 3 Este 9 Este 0 934.8 -- 91
2020-11-22 00:00:00 0.9 0 Calma 8 Sudeste 0 934.7 -- 88
2020-11-21 23:00:00 1.7 0 Calma 8 Este 0 934.6 -- 88
2020-11-21 22:00:00 2.1 3 Nordeste 5 Nordeste 0 934.5 -- 84
2020-11-21 21:00:00 3.7 3 Sudoeste 8 Sur 0 934.5 -- 77
2020-11-21 20:00:00 5.7 5 Sudeste 8 Este 0 934.4 -- 69
2020-11-21 19:00:00 7.4 6 Nordeste 11 Nordeste 0 934.3 -- 64
2020-11-21 18:00:00 10.8 5 Nordeste 13 Nordeste 0 933.9 -- 50
2020-11-21 17:00:00 15 7 Este 11 Este 0 933.7 -- 35
2020-11-21 16:00:00 15.3 6 Este 17 Este 0 933.5 -- 34
2020-11-21 15:00:00 14.9 10 Este 17 Este 0 933.8 -- 37
2020-11-21 14:00:00 13.8 5 Este 11 Este 0 934.3 -- 41
2020-11-21 13:00:00 11.5 3 Sudeste 13 Nordeste 0 935.3 -- 52
2020-11-21 12:00:00 8.9 7 Este 15 Este 0 936 -- 63
2020-11-21 11:00:00 6.9 10 Este 15 Este 0 936.1 -- 69
2020-11-21 10:00:00 3.8 0 Calma 5 Nordeste 0 935.7 -- 82
2020-11-21 09:00:00 -0.3 0 Calma 4 Este 0 935.3 -- 95
2020-11-21 08:00:00 -1.7 0 Calma 5 Sudeste 0 935.1 -- 94
2020-11-21 07:00:00 0.2 5 Este 8 Este 0 935 -- 91
2020-11-21 06:00:00 0.4 5 Este 9 Este 0 935.4 -- 91
2020-11-21 05:00:00 1 0 Calma 21 Nordeste 0 935.4 -- 88
2020-11-21 04:00:00 2.3 13 Nordeste 22 Nordeste 0 935.5 -- 87
2020-11-21 03:00:00 2.8 13 Este 21 Este 0 935.4 -- 85
2020-11-21 02:00:00 1 4 Nordeste 13 Este 0 935.9 -- 90
2020-11-21 01:00:00 3 11 Este 18 Este 0 936.5 -- 86
2020-11-21 00:00:00 4.1 13 Este 28 Este 0 936.8 -- 83
2020-11-20 23:00:00 3.8 10 Nordeste 15 Nordeste 0 937.3 -- 86
2020-11-20 22:00:00 3.8 7 Este 17 Este 0 937.2 -- 85
2020-11-20 21:00:00 4.8 8 Este 13 Este 0 937.5 -- 81
2020-11-20 20:00:00 5.9 3 Este 11 Este 0 937.6 -- 74
2020-11-20 19:00:00 7.7 7 Este 18 Este 0 937.5 -- 69
2020-11-20 18:00:00 10.2 17 Este 22 Este 0 937.3 -- 59
2020-11-20 17:00:00 12.3 16 Este 30 Este 0 937.5 -- 51
2020-11-20 16:00:00 12.5 18 Este 30 Nordeste 0 938 -- 50
2020-11-20 15:00:00 12.6 17 Este 32 Este 0 938.2 -- 49
2020-11-20 14:00:00 11.7 19 Nordeste 28 Este 0 938.7 -- 58
2020-11-20 13:00:00 10 14 Este 28 Este 0 939.7 -- 67
2020-11-20 12:00:00 8.5 20 Este 28 Este 0 940.7 -- 75
2020-11-20 11:00:00 7.1 12 Este 18 Este 0 940.5 -- 82
2020-11-20 10:00:00 5.8 12 Este 18 Nordeste 0 940.8 -- 91
2020-11-20 09:00:00 2.5 3 Nordeste 11 Nordeste 0 940.6 -- 98
2020-11-20 08:00:00 2.3 8 Nordeste 13 Nordeste 0 940.5 -- 96
2020-11-20 07:00:00 3.5 0 Calma 17 Este 0 940.3 -- 95
2020-11-20 06:00:00 4.8 14 Este 22 Este 0 940.6 -- 92
2020-11-20 05:00:00 5.5 10 Este 18 Este 0 940.6 -- 92
2020-11-20 04:00:00 6.3 6 Nordeste 11 Este 0 941.2 -- 94
2020-11-20 03:00:00 5.8 0 Calma 26 Este 0 941 -- 92
2020-11-20 02:00:00 7.3 16 Nordeste 24 Nordeste 0 941.4 -- 90
2020-11-20 01:00:00 7.8 18 Este 26 Este 0 941 -- 91
2020-11-20 00:00:00 8.4 14 Este 22 Este 0 941.3 -- 92
2020-11-19 23:00:00 9.4 15 Este 21 Este 0 941.4 -- 91
2020-11-19 22:00:00 7.6 4 Este 11 Este 0 941.2 -- 97
2020-11-19 21:00:00 8.8 0 Calma 5 Sudeste 0 941 -- 91
2020-11-19 20:00:00 10 0 Calma 5 Este 0 940.9 -- 89
2020-11-19 19:00:00 12 4 Este 11 Nordeste 0 940.6 -- 78
2020-11-19 18:00:00 14.9 8 Este 13 Este 0 940.3 -- 68
2020-11-19 17:00:00 17.6 9 Nordeste 17 Este 0 940.2 -- 58
2020-11-19 16:00:00 18.2 11 Este 22 Este 0 939.9 -- 58
2020-11-19 15:00:00 18.3 14 Nordeste 24 Este 0 940.4 -- 58
2020-11-19 14:00:00 18.1 16 Este 24 Este 0 940.7 -- 59
2020-11-19 13:00:00 17.3 13 Este 24 Sudeste 0 941.1 -- 62
2020-11-19 12:00:00 15.7 13 Este 18 Este 0 941.9 -- 69
2020-11-19 11:00:00 12.4 8 Este 13 Este 0 942.2 -- 81
2020-11-19 10:00:00 8.1 0 Calma 8 Sur 0 942 -- 94
2020-11-19 09:00:00 3.5 3 Sur 13 Nordeste 0 940.9 -- 97
2020-11-19 08:00:00 2.5 7 Este 9 Este 0 939.9 -- 95
2020-11-19 07:00:00 2.5 0 Calma -- -- 0 939.1 -- 93
2020-11-19 06:00:00 3.2 0 Calma 5 Sur 0 938.9 -- 95
2020-11-19 05:00:00 3.5 4 Sur 8 Norte 0 938.6 -- 93
2020-11-19 04:00:00 4.1 0 Calma 9 Sur 0 938.2 -- 92
2020-11-19 03:00:00 4.8 8 Sur 9 Sur 0 937.9 -- 93
2020-11-19 02:00:00 5.3 4 Este 8 Este 0 938 -- 93
2020-11-19 01:00:00 6.4 0 Calma -- -- 0 938 -- 93
2020-11-19 00:00:00 7.4 7 Este -- -- -- 937.8 -- 89
2020-11-18 23:00:00 8.4 0 Calma 8 Este 0 937.6 -- 92
2020-11-18 22:00:00 10.3 9 Sudeste 11 Sudeste 0 937.1 -- 86
2020-11-18 21:00:00 9.7 4 Sur 11 Sudeste 0 936.8 -- 83
2020-11-18 20:00:00 10.6 3 Sudeste 8 Sudeste 0 936.2 -- 76
2020-11-18 19:00:00 13.8 2 Norte 9 Nordeste 0 935.7 -- 66
2020-11-18 18:00:00 17.8 7 Norte 13 Norte 0 935 -- 51
2020-11-18 17:00:00 20.8 9 Norte 13 Norte 0 934.6 -- 42
2020-11-18 16:00:00 22.2 7 Norte 30 Nordeste 0 934.5 -- 39
2020-11-18 15:00:00 22.8 6 Oeste 13 Oeste 0 934.4 -- 36
2020-11-18 14:00:00 22 3 Oeste 13 Sur 0 934.6 -- 42
2020-11-18 13:00:00 20.2 3 Sur 9 Sudeste 0 935.3 -- 51
2020-11-18 12:00:00 17.8 0 Calma 13 Sur 0 935.7 -- 62
2020-11-18 11:00:00 14.9 9 Sur 15 Sur 0 935.8 -- 72
2020-11-18 10:00:00 10.1 6 Sudeste 9 Sudeste 0 935.7 -- 88
2020-11-18 09:00:00 5 7 Este 11 Este 0 935.3 -- 96
2020-11-18 08:00:00 3.3 7 Este 8 Este 0 934.6 -- 95
2020-11-18 07:00:00 3.8 6 Sudeste 8 Sudeste 0 934.4 -- 94
2020-11-18 06:00:00 3.8 3 Sudeste 9 Sudeste 0 934.3 -- 94
2020-11-18 05:00:00 4.2 7 Este 9 Este 0 934.2 -- 95
2020-11-18 04:00:00 4.5 0 Calma 8 Sudeste 0 934.3 -- 93
2020-11-18 03:00:00 4.5 4 Este 9 Sur 0 934.3 -- 95
2020-11-18 02:00:00 4.8 8 Sur -- -- 0 934.5 -- 92
2020-11-18 01:00:00 5.2 6 Este 9 Sudeste 0 934.6 -- 92
2020-11-18 00:00:00 6.3 5 Sudeste 9 Sudeste 0 934.6 -- 89
2020-11-17 23:00:00 7.9 5 Sur 9 Sur 0 934.7 -- 82
2020-11-17 22:00:00 10.1 9 Sur 15 Sur 0 934.4 -- 76
2020-11-17 21:00:00 10.6 10 Sur 13 Sur 0 934.3 -- 73
2020-11-17 20:00:00 10 0 Calma 13 Sudoeste 0 934.1 -- 68
2020-11-17 19:00:00 12.9 10 Sur 13 Sur 0 933.7 -- 60
2020-11-17 18:00:00 16.6 8 Sur 15 Sudoeste 0 933.5 -- 49
2020-11-17 17:00:00 20.7 12 Sudoeste 24 Sur 0 933.2 -- 39
2020-11-17 16:00:00 21.8 2 Noroeste 13 Noroeste 0 933 -- 37
2020-11-17 15:00:00 21.7 3 Sur 17 Sudoeste 0 933.3 -- 38
2020-11-17 14:00:00 20.3 4 Sur 13 Sur 0 933.6 -- 34
2020-11-17 13:00:00 17.9 7 Sudeste 13 Sur 0 934.4 -- 48
2020-11-17 12:00:00 14.7 6 Sudeste 13 Este 0 935.2 -- 65
2020-11-17 11:00:00 10.4 5 Sudeste 9 Este 0 935.3 -- 81
2020-11-17 10:00:00 6.5 3 Sudeste 9 Sudeste 0 935.3 -- 93
2020-11-17 09:00:00 1.7 0 Calma 5 Este 0 935.2 -- 98
2020-11-17 08:00:00 1.4 0 Calma 5 Este 0 934.7 -- 98
2020-11-17 07:00:00 1.9 2 Nordeste 5 Nordeste 0 934.5 -- 98
2020-11-17 06:00:00 2 0 Calma 5 Este 0 934.5 -- 98
2020-11-17 05:00:00 2.2 0 Calma 4 Nordeste 0 934.3 -- 98
2020-11-17 04:00:00 2.4 0 Calma 5 Sudeste 0 934.3 -- 98
2020-11-17 03:00:00 2.7 0 Calma 4 Nordeste 0 934.3 -- 97
2020-11-17 02:00:00 3.1 2 Este 5 Sur 0 934.4 -- 98
2020-11-17 01:00:00 3.4 5 Sudoeste 8 Sudoeste 0 934.8 -- 98
2020-11-17 00:00:00 4.7 0 Calma -- -- 0 934.7 -- 96
2020-11-16 23:00:00 5.5 0 Calma 8 Sudeste 0 934.8 -- 95
2020-11-16 22:00:00 6.9 7 Sudeste 8 Sudeste 0 934.6 -- 94
2020-11-16 21:00:00 7 2 Sur 5 Sur 0 934.2 -- 93
2020-11-16 20:00:00 8.6 3 Este -- -- 0 933.9 -- 85
2020-11-16 19:00:00 11.3 0 Calma 8 Norte 0 933.5 -- 76
2020-11-16 18:00:00 13.9 4 Norte 11 Norte 0 933.4 -- 66
2020-11-16 17:00:00 15.7 5 Nordeste 9 Nordeste 0 933.1 -- 60
2020-11-16 16:00:00 16.3 4 Noroeste 15 Norte 0 932.9 -- 58
2020-11-16 15:00:00 16.3 2 Noroeste 15 Norte 0 933 -- 57
2020-11-16 14:00:00 15.9 5 Sur 18 Norte 0 932.9 -- 61
2020-11-16 13:00:00 14.8 12 Noroeste 18 Norte 0 933.7 -- 68
2020-11-16 12:00:00 13.7 10 Norte 18 Norte 0 933.6 -- 76
2020-11-16 11:00:00 12.8 7 Norte 13 Norte 0 933.1 -- 86
2020-11-16 10:00:00 12.6 0 Calma 8 Nordeste 0 932.8 -- 92
2020-11-16 09:00:00 8.5 5 Oeste -- -- -- 932.5 -- 98
2020-11-16 08:00:00 9.9 3 Sudoeste 9 Sudoeste 0 931.6 -- 97
2020-11-16 07:00:00 11 3 Oeste 8 Oeste 0 931.4 -- 96
2020-11-16 06:00:00 11.6 4 Oeste 18 Oeste 0 931.2 -- 94
2020-11-16 05:00:00 12.7 9 Oeste 15 Oeste 0 931 -- 95
2020-11-16 04:00:00 12.3 8 Oeste 18 Oeste 0 930.8 -- 95
2020-11-16 03:00:00 13.2 14 Oeste 18 Oeste 0 930.9 -- 94
2020-11-16 02:00:00 13.3 10 Oeste 18 Oeste 0 931 -- 93
2020-11-16 01:00:00 13.5 13 Oeste 24 Oeste 0 930.9 -- 91
2020-11-16 00:00:00 13.2 9 Oeste 13 Oeste 0 931 -- 89
2020-11-15 23:00:00 13.3 8 Sudoeste 13 Sudoeste 0 930.6 -- 92
2020-11-15 22:00:00 12 0 Calma 15 Oeste 0 930 -- 93
2020-11-15 21:00:00 12.6 11 Oeste 21 Sudoeste 0 929.5 -- 89
2020-11-15 20:00:00 13.2 12 Sudoeste 21 Sudoeste 0 929.2 -- 89
2020-11-15 19:00:00 14.1 13 Sudoeste 22 Oeste 0 928.9 -- 87
2020-11-15 18:00:00 14.9 14 Sudoeste 26 Sudoeste 0 928.7 -- 83
2020-11-15 17:00:00 16.2 22 Sudoeste 37 Sudoeste 0 928.4 -- 75
2020-11-15 16:00:00 16.8 23 Sudoeste 39 Sudoeste 0 928.1 -- 75
2020-11-15 15:00:00 17.1 26 Sudoeste 42 Sudoeste 0 928.1 -- 75
2020-11-15 14:00:00 17.2 32 Sudoeste 45 Sudoeste 0 928.3 -- 73
2020-11-15 13:00:00 18 31 Sudoeste 46 Oeste 0 928.4 -- 72
2020-11-15 12:00:00 15.8 24 Sudoeste 37 Sudoeste 0 928.8 -- 81
2020-11-15 11:00:00 15.7 28 Sudoeste 39 Sudoeste 0 928.5 -- 81
2020-11-15 10:00:00 15 22 Sudoeste 35 Sudoeste 0 928.5 -- 84
2020-11-15 09:00:00 14.2 24 Sudoeste 33 Sudoeste 0 928.1 -- 86
2020-11-15 08:00:00 13 18 Sudoeste 30 Sudoeste 0 927.7 -- 89
2020-11-15 07:00:00 13.4 17 Sudoeste 26 Sudoeste 0 927.4 -- 89
2020-11-15 06:00:00 12.9 17 Sudoeste 32 Sudoeste 0 927.4 -- 90
2020-11-15 05:00:00 13.2 20 Sudoeste 35 Sudoeste 0 927.1 -- 90
2020-11-15 04:00:00 13.1 25 Sudoeste 35 Sudoeste 0 927.6 -- 89
2020-11-15 03:00:00 12.5 23 Sudoeste 35 Sudoeste 0 927.7 -- 88
2020-11-15 02:00:00 12.1 17 Sudoeste 24 Sudoeste 0 928.2 -- 90
2020-11-15 01:00:00 11.3 12 Sur 22 Sudoeste 0 928.7 -- 91
2020-11-15 00:00:00 11.7 13 Sudoeste 18 Sudoeste 0 928.7 -- 91
2020-11-14 23:00:00 10.1 10 Sudoeste 13 Sudoeste 0 929 -- 92
2020-11-14 22:00:00 10.3 4 Sur 17 Oeste 0 929.1 -- 91
2020-11-14 21:00:00 11.7 9 Oeste 18 Sudoeste 0 929 -- 88
2020-11-14 20:00:00 11.7 3 Oeste 15 Sudoeste 0 928.7 -- 88
2020-11-14 19:00:00 11.1 10 Sudoeste 30 Oeste 0 928.1 -- 88
2020-11-14 18:00:00 14.2 22 Sudoeste 33 Sudoeste 0 927.8 -- 80
2020-11-14 17:00:00 16.9 21 Oeste 30 Sudoeste 0 927.3 -- 68
2020-11-14 16:00:00 16.2 14 Sudoeste 30 Sudoeste 0 927 -- 72
2020-11-14 15:00:00 16.7 22 Sudoeste 35 Sudoeste 0 927.1 -- 67
2020-11-14 14:00:00 16.7 24 Sudoeste 32 Sudoeste 0 927.3 -- 66
2020-11-14 13:00:00 15.4 11 Sur 18 Sudoeste 0 927.7 -- 72
2020-11-14 12:00:00 13.2 2 Sudoeste 8 Sur 0 928.4 -- 78
2020-11-14 11:00:00 10.8 0 Calma 9 Sudeste 0 928.2 -- 89
2020-11-14 10:00:00 9 5 Sudeste 9 Sudeste 0 928.4 -- 93
2020-11-14 09:00:00 7 3 Sudeste 8 Sur 0 928.1 -- 97
2020-11-14 08:00:00 5.8 3 Sur 8 Sudoeste 0 927.6 -- 95
2020-11-14 07:00:00 6.4 0 Calma 9 Este 0 927.4 -- 95
2020-11-14 06:00:00 6.6 5 Nordeste 9 Nordeste 0 927.2 -- 95
2020-11-14 05:00:00 8.1 0 Calma 5 Norte 0 927.2 -- 93
2020-11-14 04:00:00 8.1 2 Oeste 8 Nordeste 0 927.5 -- 93
2020-11-14 03:00:00 8 3 Nordeste 11 Sudeste 0 927.9 -- 94
2020-11-14 02:00:00 8.3 11 Sudeste 11 Sudeste 0 928.2 -- 94
2020-11-14 01:00:00 7.9 5 Este 8 Este 0 928.6 -- 95
2020-11-14 00:00:00 8 3 Nordeste 5 Este 0 928.8 -- 94
2020-11-13 23:00:00 8.3 0 Calma 5 Este 0 929 -- 93
2020-11-13 22:00:00 8.7 5 Nordeste 11 Norte 0 928.7 -- 93
2020-11-13 21:00:00 9.2 4 Sur 9 Sur 0 928.5 -- 90
2020-11-13 20:00:00 8.2 5 Sudeste 9 Este 0 928.5 -- 88
2020-11-13 19:00:00 9.4 6 Este -- -- 0 928.1 -- 84
2020-11-13 18:00:00 12 8 Nordeste 11 Norte 0 927.9 -- 73
2020-11-13 17:00:00 14.8 3 Oeste 8 Noroeste 0 927.7 -- 57
2020-11-13 16:00:00 15.5 0 Calma 11 Sudoeste 0 927.7 -- 53
2020-11-13 15:00:00 15.3 5 Sur 21 Este 0 927.8 -- 55
2020-11-13 14:00:00 14.7 14 Este 22 Sudeste 0 927.7 -- 59
2020-11-13 13:00:00 13.3 7 Sudeste 11 Sudeste 0 928.9 -- 69
2020-11-13 12:00:00 11.6 3 Este 13 Este 0 929.5 -- 79
2020-11-13 11:00:00 10.4 5 Sudeste 9 Sudeste 0 929.7 -- 85
2020-11-13 10:00:00 7.4 0 Calma 4 Sur 0 929.7 -- 97
2020-11-13 09:00:00 5 0 Calma 5 Este 0 929.1 -- 98
2020-11-13 08:00:00 5.1 0 Calma 4 Nordeste 0 928.7 -- 98
2020-11-13 07:00:00 5 0 Calma 2 Sudeste 0 928.3 -- 97
2020-11-13 06:00:00 5.1 0 Calma 2 Sudeste 0 928.2 -- 98
2020-11-13 05:00:00 5.2 0 Calma 2 Sudeste 0 928.1 -- 98
2020-11-13 04:00:00 5.7 0 Calma 5 Este 0 928.3 -- 98
2020-11-13 03:00:00 5.4 3 Este 8 Nordeste 0 928.3 -- 98
2020-11-13 02:00:00 7 0 Calma -- -- 0 928.4 -- 97
2020-11-13 01:00:00 7.5 0 Calma 2 Nordeste 0 928.8 -- 96
2020-11-13 00:00:00 8.1 0 Calma 4 Este 0 929.1 -- 96
2020-11-12 23:00:00 8.2 4 Norte 8 Norte 0 929 -- 95
2020-11-12 22:00:00 8.6 0 Calma 11 Noroeste 0 928.7 -- 94
2020-11-12 21:00:00 9.4 5 Noroeste 13 Norte 0 928.6 -- 92
2020-11-12 20:00:00 10.4 7 Norte 13 Norte 0 928.6 -- 91
2020-11-12 19:00:00 10.8 6 Nordeste 9 Nordeste 0 928.3 -- 81
2020-11-12 18:00:00 12.8 6 Este 13 Nordeste 0 928.1 -- 68
2020-11-12 17:00:00 14.7 8 Nordeste 13 Este 0 928.2 -- 62
2020-11-12 16:00:00 15.9 9 Este 17 Este 0 928.3 -- 56
2020-11-12 15:00:00 16.3 8 Este 17 Este 0 928.7 -- 53
2020-11-12 14:00:00 15.7 6 Este 17 Nordeste 0 929.3 -- 56
2020-11-12 13:00:00 14.6 8 Este 15 Sudeste 0 930.1 -- 64
2020-11-12 12:00:00 12.5 8 Nordeste 13 Este 0 931.1 -- 75
2020-11-12 11:00:00 9.2 0 Calma 8 Sudeste 0 931.3 -- 90
2020-11-12 10:00:00 7 0 Calma 5 Nordeste 0 931.6 -- 97
2020-11-12 09:00:00 4.4 4 Nordeste 8 Este 0 931.4 -- 98
2020-11-12 08:00:00 4.6 5 Este 5 Este 0 930.9 -- 96
2020-11-12 07:00:00 5.5 0 Calma 8 Este 0 930.8 -- 97
2020-11-12 06:00:00 5.3 3 Nordeste 5 Nordeste 0 930.9 -- 97
2020-11-12 05:00:00 5.6 3 Este 9 Sudeste 0 930.9 -- 96
2020-11-12 04:00:00 5.8 3 Nordeste 8 Nordeste 0 931.2 -- 97
2020-11-12 03:00:00 6.1 3 Sudeste 8 Nordeste 0 931.7 -- 95
2020-11-12 02:00:00 6.6 0 Calma 8 Este 0 931.9 -- 95
2020-11-12 01:00:00 7 0 Calma 5 Este 0 932.2 -- 95
2020-11-12 00:00:00 7.1 0 Calma 5 Sur 0 931.9 -- 94
2020-11-11 23:00:00 8 3 Sur 13 Norte 0 932.1 -- 94
2020-11-11 22:00:00 8 0 Calma 15 Sur 0 931.6 -- 94
2020-11-11 21:00:00 8.8 2 Sudeste 15 Sudeste 0 931.7 -- 92
2020-11-11 20:00:00 9.7 6 Sudeste 17 Este 0 931.4 -- 90
2020-11-11 19:00:00 10.4 9 Este 13 Este 0 931.5 -- 87
2020-11-11 18:00:00 12.7 8 Este 15 Sudeste 0 930.9 -- 77
2020-11-11 17:00:00 14.7 2 Oeste 17 Norte 0 931.1 -- 63
2020-11-11 16:00:00 15.1 3 Noroeste 15 Noroeste 0 930.9 -- 61
2020-11-11 15:00:00 14.8 9 Noroeste 18 Noroeste 0 931 -- 63
2020-11-11 14:00:00 15.5 6 Noroeste 17 Norte 0 931.4 -- 61
2020-11-11 13:00:00 13.2 0 Calma 8 Este 0 931.9 -- 69
2020-11-11 12:00:00 9.3 3 Sudeste 13 Sudeste 0 932.5 -- 87
2020-11-11 11:00:00 6.3 6 Sudeste 11 Sudeste 0 933 -- 98
2020-11-11 10:00:00 5.7 4 Sudeste 11 Sudeste 0 933 -- 98
2020-11-11 09:00:00 5.7 8 Este 11 Este 0 932.8 -- 99
2020-11-11 08:00:00 5.7 5 Sudeste 13 Sudeste 0 932.5 -- 99
2020-11-11 07:00:00 6.3 8 Sudeste 13 Sudeste 0 932.6 -- 98
2020-11-11 06:00:00 6.6 6 Este 11 Este 0 932.9 -- 98
2020-11-11 05:00:00 6.8 2 Sudeste 13 Sudeste 0 932.9 -- 98
2020-11-11 04:00:00 6.9 6 Sudeste 15 Sudeste 0 933.5 -- 98
2020-11-11 03:00:00 7.2 7 Este 15 Este 0 934 -- 98
2020-11-11 02:00:00 7.4 6 Este 15 Sudeste 0 934.8 -- 97
2020-11-11 01:00:00 7.9 8 Este 15 Este 0 935.1 -- 97
2020-11-11 00:00:00 8 8 Este 13 Este 0 935.2 -- 96
2020-11-10 23:00:00 8.1 8 Nordeste 13 Nordeste 0 935.3 -- 95
2020-11-10 22:00:00 8.3 9 Este 13 Este 0 935.1 -- 94
2020-11-10 21:00:00 8.2 8 Este 18 Este 0 935 -- 93
2020-11-10 20:00:00 8.5 12 Nordeste 18 Este 0 934.8 -- 93
2020-11-10 19:00:00 8.9 12 Nordeste 18 Nordeste 0 935 -- 93
2020-11-10 18:00:00 9.6 11 Nordeste 18 Este 0 934.7 -- 89
2020-11-10 17:00:00 11.9 12 Nordeste 18 Nordeste 0 934.7 -- 81
2020-11-10 16:00:00 13 11 Nordeste 17 Nordeste 0 934.4 -- 77
2020-11-10 15:00:00 12.6 8 Nordeste 15 Norte 0 934.5 -- 80
2020-11-10 14:00:00 10.1 4 Nordeste 15 Este 0 935.1 -- 92
2020-11-10 13:00:00 8.6 4 Nordeste 11 Este 0 935.9 -- 98
2020-11-10 12:00:00 7.8 4 Este 11 Este 0 936.1 -- 98
2020-11-10 11:00:00 7.1 0 Calma 11 Sudeste 0 936 -- 99
2020-11-10 10:00:00 6.5 6 Este 11 Sudeste 0 935.7 -- 99
2020-11-10 09:00:00 6.3 3 Sudeste 8 Sur 0 935.2 -- 99
2020-11-10 08:00:00 6.2 0 Calma 8 Oeste 0 934.7 -- 99
2020-11-10 07:00:00 6 0 Calma 4 Nordeste 0 934.4 -- 99
2020-11-10 06:00:00 5.6 0 Calma 4 Sur 0 934.1 -- 99
2020-11-10 05:00:00 4.3 0 Calma 5 Norte 0 934.1 -- 99
2020-11-10 04:00:00 2.7 0 Calma -- -- -- 933.8 -- 98
2020-11-10 03:00:00 3 0 Calma 4 Norte 0 933.9 -- 98
2020-11-10 02:00:00 3.5 5 Sudeste 8 Nordeste 0 933.9 -- 98
2020-11-10 01:00:00 4 0 Calma 8 Sur 0 933.8 -- 97
2020-11-10 00:00:00 4.9 5 Sudeste 9 Nordeste 0 933.8 -- 96
2020-11-09 23:00:00 5.9 0 Calma 4 Sudoeste 0 933.5 -- 96
2020-11-09 22:00:00 7.3 2 Nordeste 9 Sudoeste 0 933.3 -- 95
2020-11-09 21:00:00 8.5 8 Sudoeste 9 Sudoeste 0 933 -- 92
2020-11-09 20:00:00 10.4 0 Calma 5 Sudoeste 0 933 -- 84
2020-11-09 19:00:00 11.9 0 Calma 11 Noroeste 0 932.3 -- 78
2020-11-09 18:00:00 13.6 7 Noroeste 13 Noroeste 0 931.7 -- 70
2020-11-09 17:00:00 14.4 9 Noroeste 22 Norte 0 931.4 -- 66
2020-11-09 16:00:00 14.3 12 Noroeste 22 Norte 0 930.9 -- 69
2020-11-09 15:00:00 15.4 12 Noroeste 24 Oeste 0 930.7 -- 63
2020-11-09 14:00:00 14.1 14 Oeste 22 Oeste 0 930.9 -- 70
2020-11-09 13:00:00 14.5 12 Oeste 21 Oeste 0 931.2 -- 68
2020-11-09 12:00:00 12.3 4 Noroeste 13 Oeste 0 931.5 -- 82
2020-11-09 11:00:00 11.6 4 Oeste 8 Oeste 0 931.4 -- 89
2020-11-09 10:00:00 9.6 0 Calma 8 Nordeste 0 931.1 -- 97
2020-11-09 09:00:00 6.2 3 Nordeste 9 Sudeste 0 930.5 -- 99
2020-11-09 08:00:00 4.2 0 Calma 9 Sudeste 0 929.6 -- 99
2020-11-09 07:00:00 3.7 0 Calma 13 Sudeste 0 929.1 -- 98
2020-11-09 06:00:00 4.3 0 Calma 5 Sur 0 928.8 -- 97
2020-11-09 05:00:00 5.7 4 Sudeste 8 Este 0 928.5 -- 98
2020-11-09 04:00:00 7.1 3 Sudeste 11 Sudeste 0 928.3 -- 97
2020-11-09 03:00:00 8.5 6 Sudeste -- -- 0 928.6 -- 97
2020-11-09 02:00:00 9.2 0 Calma 11 Noroeste 0.1 928.6 -- 97
2020-11-09 01:00:00 9.4 3 Norte 11 Sur 1 928.7 -- 96
2020-11-09 00:00:00 9.7 9 Sur 17 Este 0.2 928.7 -- 95
2020-11-08 23:00:00 9.8 11 Este 17 Este 0 928.4 -- 95
2020-11-08 22:00:00 10 9 Este 15 Este 1.1 928.6 -- 96
2020-11-08 21:00:00 10 5 Este 11 Este 0.7 928.7 -- 94
2020-11-08 20:00:00 10 4 Sudeste 9 Nordeste 0.4 928.7 -- 94
2020-11-08 19:00:00 10.2 3 Norte 26 Noroeste 1.8 928.7 -- 91
2020-11-08 18:00:00 12.1 5 Noroeste 13 Sudoeste 0.3 927.9 -- 88
2020-11-08 17:00:00 13.1 10 Sudoeste 30 Sudoeste 0.4 927.7 -- 82
2020-11-08 16:00:00 14.5 23 Sudoeste 41 Sudoeste 0 927.5 -- 69
2020-11-08 15:00:00 14.9 25 Sudoeste 41 Sudoeste 0 927.7 -- 67
2020-11-08 14:00:00 15.4 30 Sudoeste 46 Sudoeste 0 928 -- 65
2020-11-08 13:00:00 15.9 22 Sudoeste 45 Sudoeste 0 928.6 -- 63
2020-11-08 12:00:00 15.4 26 Sudoeste 33 Sudoeste 0 929.1 -- 63
2020-11-08 11:00:00 13.5 16 Sur 26 Sur 0 928.9 -- 67
2020-11-08 10:00:00 8.7 9 Sudeste 11 Este 0 929 -- 92
2020-11-08 09:00:00 8.6 4 Este 13 Sudeste 0 928.7 -- 91
2020-11-08 08:00:00 9.2 12 Sudeste 33 Sudoeste 0 928.2 -- 89
2020-11-08 07:00:00 8.9 10 Sudeste 18 Sur 0 928.5 -- 89
2020-11-08 06:00:00 9.7 17 Sur 24 Sur 0 928.8 -- 90
2020-11-08 05:00:00 5.6 7 Sudeste 13 Sur 0 929 -- 95
2020-11-08 04:00:00 4.9 10 Sur 13 Sur 0 929.3 -- 93
2020-11-08 03:00:00 5.4 5 Este 11 Este 0 929.5 -- 92
2020-11-08 02:00:00 7.1 8 Este 21 Sur 0 929.3 -- 85
2020-11-08 01:00:00 9.4 11 Sur 18 Sur 0 929.6 -- 81
2020-11-08 00:00:00 9.4 4 Sur 13 Sur 0 929.6 -- 81
2020-11-07 23:00:00 10.4 10 Sudoeste 32 Sudoeste 0 929.4 -- 79
2020-11-07 22:00:00 10.1 13 Sudoeste 30 Sudoeste 0 929.2 -- 80
2020-11-07 21:00:00 9.6 14 Sudoeste 28 Sudoeste 0 929 -- 86
2020-11-07 20:00:00 9.2 8 Sur 17 Sudoeste 0 929 -- 88
2020-11-07 19:00:00 10.3 13 Sudoeste 28 Sudoeste 0 928.7 -- 83
2020-11-07 18:00:00 11.7 17 Sudoeste 39 Sudoeste 0 928.1 -- 76
2020-11-07 17:00:00 14 26 Sudoeste 37 Sudoeste 0 927.9 -- 67
2020-11-07 16:00:00 14.1 24 Sudoeste 37 Sudoeste 0 927.3 -- 66
2020-11-07 15:00:00 14.7 27 Sudoeste 41 Sudoeste 0 926.9 -- 68
2020-11-07 14:00:00 15.1 27 Sudoeste 39 Sudoeste 0 926.5 -- 70
2020-11-07 13:00:00 14.3 24 Sudoeste 37 Sudoeste 0 926.3 -- 74
2020-11-07 12:00:00 13.5 18 Sudoeste 26 Sudoeste 0 926 -- 81
2020-11-07 11:00:00 12.2 16 Sudoeste 21 Sudoeste 0 925.3 -- 90
2020-11-07 10:00:00 10.4 8 Sur 11 Sudoeste 0.2 924.2 -- 95
2020-11-07 09:00:00 9.7 9 Sur 13 Sur 0.3 923.5 -- 96
2020-11-07 08:00:00 9.4 5 Sur 11 Sudeste 0 922.6 -- 94
2020-11-07 07:00:00 8.7 5 Nordeste 8 Este 0 921.7 -- 96
2020-11-07 06:00:00 9.1 7 Sudeste 11 Este 0 921.3 -- 96
2020-11-07 05:00:00 9.5 5 Sudeste 15 Este 0 920.9 -- 96
2020-11-07 04:00:00 9.4 0 Calma 5 Sudeste 0.8 921 -- 97
2020-11-07 03:00:00 9.4 5 Sudoeste 13 Oeste 0.9 921.4 -- 97
2020-11-07 02:00:00 9.3 4 Nordeste 13 Oeste 0.6 921.1 -- 95
2020-11-07 01:00:00 10.1 8 Oeste 13 Oeste 0.2 922 -- 95
2020-11-07 00:00:00 9.8 12 Este 15 Este 0 921.2 -- 94
2020-11-06 23:00:00 10.4 10 Sudeste 22 Sur 1 921.8 -- 94
2020-11-06 22:00:00 10.8 7 Sudoeste 28 Sudoeste 0 922 -- 89
2020-11-06 21:00:00 11.5 22 Sudoeste 52 Sudoeste 0.1 921.7 -- 86
2020-11-06 20:00:00 11.6 8 Norte 52 Sur 0.9 920.1 -- 88
2020-11-06 19:00:00 13 20 Sudoeste 41 Sudoeste 0.6 921.3 -- 84
2020-11-06 18:00:00 15.9 12 Sudeste 26 Sur 0 920.9 -- 72
2020-11-06 17:00:00 17.9 16 Sudeste 37 Sudeste 0 920.4 -- 60
2020-11-06 16:00:00 18.7 23 Sudeste 39 Sudeste 0 920.4 -- 58
2020-11-06 15:00:00 18.6 25 Sudeste 46 Sur 0 920.8 -- 59
2020-11-06 14:00:00 17.8 24 Sudeste 50 Sudeste 0 921.5 -- 61
2020-11-06 13:00:00 16.1 28 Este 54 Sudeste 0 921.6 -- 70
2020-11-06 12:00:00 15.7 35 Este 63 Este 0 922.3 -- 69
2020-11-06 11:00:00 13.7 25 Este 46 Este 0 923.6 -0.5 78
2020-11-06 10:00:00 13 31 Este 42 Sudeste 0 924.2 -- 79
2020-11-06 09:00:00 10.7 13 Este 18 Sudeste 0 924.2 -- 84
2020-11-06 08:00:00 11.2 11 Este 30 Sudeste 0.1 924.1 -- 81
2020-11-06 07:00:00 11.5 21 Sudeste 28 Sudeste 0 924.5 -- 78
2020-11-06 06:00:00 8.8 9 Nordeste 15 Este 0 924.4 -- 91
2020-11-06 05:00:00 10.4 10 Sudeste 30 Sudeste 0 924.4 -- 85
2020-11-06 04:00:00 11.7 18 Sudeste 35 Sudeste 0 924.4 -- 82
2020-11-06 03:00:00 11.5 20 Sudeste 33 Sudeste 0 924.2 -- 83
2020-11-06 02:00:00 11.1 19 Sudeste 32 Sudeste 0 923.7 -- 86
2020-11-06 01:00:00 10 17 Este 26 Este 0 924.5 -- 91
2020-11-06 00:00:00 9.3 16 Este 26 Sudeste 0 925 -- 91
2020-11-05 23:00:00 9.1 17 Este 30 Este 0 925.4 -- 91
2020-11-05 22:00:00 9.2 14 Este 22 Este 0 925.4 -- 92
2020-11-05 21:00:00 10 9 Este 24 Este 1.3 925.4 -- 92
2020-11-05 20:00:00 11.1 12 Sur 33 Sudeste 0.9 925.7 -- 87
2020-11-05 19:00:00 12.2 17 Este 35 Este 0 925.3 -- 80
2020-11-05 18:00:00 12.7 23 Este 39 Sudeste 0 924.7 -- 75
2020-11-05 17:00:00 12.8 20 Este 35 Este 0.1 924.4 -- 79
2020-11-05 16:00:00 13.6 26 Este 48 Sudeste 0 924.4 -- 75
2020-11-05 15:00:00 13.5 34 Sudeste 48 Este 0 924.4 -- 75
2020-11-05 14:00:00 13.2 18 Este 41 Sudeste 0 924.9 -- 74
2020-11-05 13:00:00 13 26 Sudeste 42 Este 0 925 -- 75
2020-11-05 12:00:00 11.8 26 Este 58 Nordeste 0 925.7 -- 82
2020-11-05 11:00:00 10.8 38 Nordeste 52 Nordeste 0 926.3 -- 82
2020-11-05 10:00:00 8.6 19 Nordeste 41 Este 0 926.1 -- 92
2020-11-05 09:00:00 7.9 27 Este 39 Este 2.5 925.7 -- 95
2020-11-05 08:00:00 7.5 22 Este 45 Este 0 925.9 -- 89
2020-11-05 07:00:00 7.4 23 Este 37 Este 0 925.4 -- 88
2020-11-05 06:00:00 7.2 25 Este 41 Este 0 925.5 -- 88
2020-11-05 05:00:00 7.3 26 Este 41 Este 0 926 -- 88
2020-11-05 04:00:00 7.5 28 Este 45 Este 0 925.9 -- 87
2020-11-05 03:00:00 7.1 29 Este 41 Este 0 925.8 -- 89
2020-11-05 02:00:00 6.8 27 Este 42 Este 0 926.2 -- 88
2020-11-05 01:00:00 6.6 26 Este 41 Este 0 926.7 -- 89
2020-11-05 00:00:00 6.6 30 Este 42 Este 0 926.6 -- 89
2020-11-04 23:00:00 7.1 26 Este 41 Este 0 926.6 -- 89
2020-11-04 22:00:00 7 27 Este 39 Este 0 926.2 -- 91
2020-11-04 21:00:00 6.6 27 Este 39 Este 0 926 -- 93
2020-11-04 20:00:00 6.6 25 Nordeste 35 Este 0 925.6 -- 90
2020-11-04 19:00:00 6.3 22 Nordeste 33 Nordeste 0.3 925.4 -- 89
2020-11-04 18:00:00 6.8 17 Nordeste 30 Este 0.1 925.6 -- 88
2020-11-04 17:00:00 6.8 22 Este 35 Este 0.5 925.6 -- 88
2020-11-04 16:00:00 7.3 25 Este 41 Este 1 925.9 -- 85
2020-11-04 15:00:00 7.7 13 Este 24 Este 0.1 926.3 -- 82
2020-11-04 14:00:00 7.2 13 Este 30 Este 0.1 926.9 -- 82
2020-11-04 13:00:00 6.9 17 Este 32 Este 0 927.7 -- 77
2020-11-04 12:00:00 6.5 18 Este 32 Nordeste -- 928.5 -- 76
2020-11-04 11:00:00 5.8 21 Nordeste 33 Este -- 929.2 -0.8 78
2020-11-04 10:00:00 4.6 23 Nordeste 32 Nordeste 0 929.9 -- 82
2020-11-04 09:00:00 3 15 Nordeste 22 Nordeste 0 929.8 -- 87
2020-11-04 08:00:00 2.8 15 Nordeste 22 Nordeste 0 930 -- 88
2020-11-04 07:00:00 3.3 14 Nordeste 26 Nordeste 0 930.6 -- 87
2020-11-04 06:00:00 3.5 15 Nordeste 24 Nordeste 0 931 -- 89
2020-11-04 05:00:00 3.4 16 Nordeste 26 Nordeste 0 931.5 -- 90
2020-11-04 04:00:00 2.8 12 Nordeste 17 Nordeste 0 932.2 -- 92
2020-11-04 03:00:00 3.6 14 Nordeste 24 Nordeste 0 932.5 -- 89
2020-11-04 02:00:00 5.3 14 Nordeste 24 Nordeste 0 933.3 -- 86
2020-11-04 01:00:00 5.1 16 Nordeste 24 Este 0 933.8 -- 88
2020-11-04 00:00:00 5.3 13 Este 26 Nordeste 0 934.6 -- 87
2020-11-03 23:00:00 6.1 14 Nordeste 24 Este 0 935.2 -- 86
2020-11-03 22:00:00 7.4 18 Este 39 Este 0 935.3 -- 82
2020-11-03 21:00:00 8.5 27 Este 39 Este 0 934.9 -- 76
2020-11-03 20:00:00 10.1 21 Este 32 Este 0 935.3 -- 69
2020-11-03 19:00:00 10.2 19 Este 30 Nordeste 0 935.5 -- 70
2020-11-03 18:00:00 12.5 18 Este 30 Este 0 935 -- 59
2020-11-03 17:00:00 13.7 20 Nordeste 33 Este 0 935 -- 53
2020-11-03 16:00:00 14.8 24 Este 37 Este 0 934.9 -- 51
2020-11-03 15:00:00 14.9 23 Este 37 Este 0 935.1 -- 55
2020-11-03 14:00:00 13.5 24 Este 37 Este 0 935.5 -- 64
2020-11-03 13:00:00 12.2 24 Este 37 Este 0 936.1 -- 72
2020-11-03 12:00:00 10.4 22 Nordeste 35 Nordeste 0 936.2 -- 82
2020-11-03 11:00:00 9.2 17 Nordeste 28 Norte 0 936 -- 84
2020-11-03 10:00:00 8.8 17 Nordeste 28 Nordeste 0 935.8 -- 85
2020-11-03 09:00:00 8.4 7 Nordeste 22 Norte 0 935.2 -- 92
2020-11-03 08:00:00 8.9 11 Norte 18 Norte 0 934.5 -- 84
2020-11-03 07:00:00 9.3 7 Norte 17 Norte 0 934.2 -- 83
2020-11-03 06:00:00 9.8 4 Norte 24 Nordeste 0 933.8 -- 87
2020-11-03 05:00:00 10.9 16 Nordeste 28 Norte 0.2 933.5 -- 86
2020-11-03 04:00:00 12.4 10 Noroeste 21 Noroeste 0.5 933.2 -- 94
2020-11-03 03:00:00 13.2 14 Noroeste 21 Noroeste 0 932.8 -- 92
2020-11-03 02:00:00 13.1 0 Calma 2 Sur 0 932.6 -- 92
2020-11-03 01:00:00 12.7 0 Calma 4 Sudeste 0 932.6 -- 91
2020-11-03 00:00:00 12.4 0 Calma 4 Sudeste 0 932.7 -- 91
2020-11-02 23:00:00 11.9 0 Calma 11 Norte 0 932.7 -- 92
2020-11-02 22:00:00 11.5 0 Calma 4 Noroeste 0 932.7 -- 89
2020-11-02 21:00:00 11.7 0 Calma 4 Norte 0 932.7 -- 88
2020-11-02 20:00:00 12.8 0 Calma 8 Sur 0 932.4 -- 84
2020-11-02 19:00:00 -- 8 Sur 9 Sur 0 932 -- --
2020-11-02 18:00:00 16 7 Sudoeste 9 Sudoeste 0 931.6 -- 71
2020-11-02 17:00:00 17.6 6 Oeste 9 Oeste 0 931.5 -- 66
2020-11-02 16:00:00 18 6 Sudoeste 11 Oeste 0 931.4 -- 63
2020-11-02 15:00:00 18.1 3 Oeste 13 Oeste 0 931.4 -- 62
2020-11-02 14:00:00 17.9 5 Sudoeste 13 Oeste 0 932 -- 64
2020-11-02 13:00:00 17.3 7 Sudoeste 13 Sudoeste 0 932.6 -- 66
2020-11-02 12:00:00 16.4 9 Sudoeste 15 Oeste 0 933.2 -- 71
2020-11-02 11:00:00 15.4 8 Sudoeste 13 Sudoeste 0 933.3 -- 81
2020-11-02 10:00:00 13.6 0 Calma 4 Sudoeste 0 933.3 -- 93
2020-11-02 09:00:00 12 0 Calma 8 Sudeste 0 932.7 -- 96
2020-11-02 08:00:00 11.5 0 Calma 9 Sudeste 0 932.3 -- 97
2020-11-02 07:00:00 11.5 3 Este 5 Norte 0 932.1 -- 96
2020-11-02 06:00:00 12.1 0 Calma 11 Oeste 0 932 -- 94
2020-11-02 05:00:00 12.9 8 Oeste 11 Oeste 0 932 -- 95
2020-11-02 04:00:00 12.8 6 Sudoeste 8 Sudoeste 0 932.1 -- 95
2020-11-02 03:00:00 13.3 6 Oeste 13 Oeste 0 932.2 -- 95
2020-11-02 02:00:00 13.3 10 Oeste 13 Oeste 0 932.4 -- 94
2020-11-02 01:00:00 13 7 Noroeste 13 Noroeste 0 932.6 -- 93
2020-11-02 00:00:00 13 5 Oeste -- -- -- 932.8 -- 90
2020-11-01 23:00:00 13 0 Calma 4 Sur 0 932.9 -- 87
2020-11-01 22:00:00 13.6 0 Calma -- -- 0 932.9 -- 84
2020-11-01 21:00:00 14.3 5 Sudoeste 5 Sudoeste 0 932.7 -- 81
2020-11-01 20:00:00 15.2 5 Oeste 9 Noroeste 0 932.7 -- 76
2020-11-01 19:00:00 16.6 3 Noroeste 15 Noroeste 0 932.5 -- 69
2020-11-01 18:00:00 18.2 8 Noroeste 15 Noroeste 0 932.2 -- 62
2020-11-01 17:00:00 20.1 11 Oeste 21 Noroeste 0 932.4 -- 50
2020-11-01 16:00:00 21 11 Oeste 22 Oeste 0 932.5 -- 51
2020-11-01 15:00:00 21 13 Noroeste 21 Noroeste 0 932.8 -- 55
2020-11-01 14:00:00 21 6 Oeste 17 Noroeste 0 933.1 -- 53
2020-11-01 13:00:00 19.4 8 Sur 15 Sur 0 933.9 -- 60
2020-11-01 12:00:00 16.5 10 Sur 15 Sur 0 934.4 -- 69
2020-11-01 11:00:00 14.2 0 Calma 8 Sur 0 934.9 -- 79
2020-11-01 10:00:00 9.7 0 Calma 5 Sur 0 935 -- 91
2020-11-01 09:00:00 7.5 0 Calma 5 Nordeste 0 934.5 -- 97
2020-11-01 08:00:00 4.9 0 Calma 5 Norte 0 933.8 -- 95
2020-11-01 07:00:00 -- -- -- -- -- -- -- -- --
2020-11-01 06:00:00 -- -- -- -- -- -- -- -- --
2020-11-01 05:00:00 -- -- -- -- -- -- -- -- --
2020-11-01 04:00:00 -- -- -- -- -- -- -- -- --
2020-11-01 03:00:00 -- -- -- -- -- -- -- -- --
2020-11-01 02:00:00 -- -- -- -- -- -- -- -- --
2020-11-01 01:00:00 6.3 2 Sur 8 Este 0 935.1 -- 94
2020-11-01 00:00:00 7 3 Sudeste 5 Sudeste 0 935 -- 93
2020-10-31 23:00:00 7.9 2 Sudeste 5 Sudeste 0 935 -- 91
2020-10-31 22:00:00 8.5 0 Calma 8 Sur 0 934.4 -- 91
2020-10-31 21:00:00 10.6 4 Sudoeste 5 Sur 0 934.3 -- 84
2020-10-31 20:00:00 12.1 4 Sur 5 Sur 0 934.2 -- 79
2020-10-31 19:00:00 14.5 2 Nordeste 11 Noroeste 0 934 -- 69
2020-10-31 18:00:00 18.9 7 Noroeste 18 Oeste 0 933.5 -- 55
2020-10-31 17:00:00 20.9 14 Oeste 24 Noroeste 0 933 -- 47
2020-10-31 16:00:00 21.5 16 Noroeste 24 Oeste 0 933.2 -- 43
2020-10-31 15:00:00 21.7 14 Noroeste 22 Oeste 0 933.3 -- 40
2020-10-31 14:00:00 20.5 8 Noroeste 17 Noroeste 0 934 -- 50
2020-10-31 13:00:00 18.7 7 Oeste 17 Oeste 0 934.6 -- 58
2020-10-31 12:00:00 17.6 3 Sudoeste 9 Oeste 0 935.2 -- 60
2020-10-31 11:00:00 14.6 6 Sudeste 11 Este 0 935.3 -- 72
2020-10-31 10:00:00 10.5 5 Sudeste 13 Sudeste 0 935.2 -- 86
2020-10-31 09:00:00 6 5 Sudeste 8 Sudeste 0 935.1 -- 96
2020-10-31 08:00:00 3 0 Calma 5 Nordeste 0 934.8 -- 95
2020-10-31 07:00:00 3.1 2 Nordeste 8 Este 0 934.2 -- 97
2020-10-31 06:00:00 3.4 0 Calma 9 Sudeste 0 934 -- 95
2020-10-31 05:00:00 3.9 5 Este 8 Este 0 933.9 -- 94
2020-10-31 04:00:00 4.2 4 Nordeste 9 Sudeste 0 933.8 -- 95
2020-10-31 03:00:00 4.6 2 Este 5 Este 0 934 -- 93
2020-10-31 02:00:00 5 3 Nordeste 8 Norte 0 934 -- 94
2020-10-31 01:00:00 5.6 0 Calma 5 Este 0 934.1 -- 93
2020-10-31 00:00:00 6.7 0 Calma 5 Este 0 934 -- 92
2020-10-30 23:00:00 7 3 Nordeste 8 Nordeste 0 934.1 -- 94
2020-10-30 22:00:00 9.1 0 Calma 4 Sudeste 0 934.1 -- 89
2020-10-30 21:00:00 10.3 3 Sur 9 Sur 0 933.8 -- 83
2020-10-30 20:00:00 13 0 Calma 8 Este 0 933.7 -- 77
2020-10-30 19:00:00 14.4 8 Sudoeste 15 Sudoeste 0 933.5 -- 69
2020-10-30 18:00:00 19.9 8 Este 11 Este 0 933.1 -- 52
2020-10-30 17:00:00 22.1 0 Calma 13 Sudoeste 0 932.9 -- 41
2020-10-30 16:00:00 22.9 2 Sudoeste 13 Oeste 0 933.1 -- 39
2020-10-30 15:00:00 22.2 2 Sur 11 Noroeste 0 933.5 -- 44
2020-10-30 14:00:00 21.3 8 Sur 17 Oeste 0 934.1 -- 45
2020-10-30 13:00:00 19.4 7 Este 11 Este 0 934.6 -- 52
2020-10-30 12:00:00 17.2 4 Este 17 Este 0 935.2 -- 59
2020-10-30 11:00:00 13.6 5 Este 13 Sudeste 0 935.2 -- 71
2020-10-30 10:00:00 9.6 3 Sudeste 9 Este 0 935.4 -- 86
2020-10-30 09:00:00 5.7 0 Calma 4 Este 0 935.3 -- 97
2020-10-30 08:00:00 1.9 3 Este -- -- 0 934.6 -- 97
2020-10-30 07:00:00 2 3 Sudeste 4 Sudeste 0 934.5 -- 97
2020-10-30 06:00:00 2.1 0 Calma 4 Nordeste 0 934.6 -- 97
2020-10-30 05:00:00 2.8 3 Nordeste -- -- 0 934.4 -- 97
2020-10-30 04:00:00 3.1 3 Sudeste 5 Sudeste 0 934.5 -- 96
2020-10-30 03:00:00 3.8 0 Calma 5 Sudeste 0 934.6 -- 96
2020-10-30 02:00:00 4.1 3 Este 5 Este 0 934.7 -- 96
2020-10-30 01:00:00 4.7 2 Sudeste 4 Este 0 934.6 -- 95
2020-10-30 00:00:00 4.8 0 Calma 5 Sudeste 0 934.8 -- 94
2020-10-29 23:00:00 5.8 5 Nordeste 5 Nordeste 0 934.7 -- 94
2020-10-29 22:00:00 7 3 Este 5 Este 0 934.6 -- 92
2020-10-29 21:00:00 9 0 Calma 5 Sur 0 934.2 -- 86
2020-10-29 20:00:00 10.2 0 Calma 11 Oeste 0 934.3 -- 83
2020-10-29 19:00:00 12.7 6 Sudoeste 9 Oeste 0 933.9 -- 74
2020-10-29 18:00:00 17.2 7 Sudoeste 18 Sur 0 933.4 -- 57
2020-10-29 17:00:00 18.8 9 Sudeste 15 Sudeste 0 933.5 -- 52
2020-10-29 16:00:00 18.7 5 Sudeste 18 Sur 0 933.7 -- 50
2020-10-29 15:00:00 18.2 7 Sur 21 Sur 0 934 -- 48
2020-10-29 14:00:00 17.5 3 Sudeste 17 Sur 0 934.5 -- 53
2020-10-29 13:00:00 16.1 8 Sudeste 17 Sudeste 0 935 -- 61
2020-10-29 12:00:00 13.6 5 Nordeste 11 Este 0 935.2 -- 71
2020-10-29 11:00:00 13.3 2 Sudeste 11 Sur 0 935.2 -- 72
2020-10-29 10:00:00 11.9 3 Sur 15 Sur 0 935 -- 82
2020-10-29 09:00:00 9.8 0 Calma 8 Sur 0 934.7 -- 94
2020-10-29 08:00:00 8.6 4 Sudeste 8 Sudeste 0 934.4 -- 97
2020-10-29 07:00:00 8.1 0 Calma 5 Nordeste 0 934.2 -- 97
2020-10-29 06:00:00 7.3 4 Nordeste 5 Nordeste 0 934 -- 97
2020-10-29 05:00:00 7.8 0 Calma 2 Oeste 0 933.5 -- 97
2020-10-29 04:00:00 7.7 0 Calma 8 Norte 0 933.5 -- 97
2020-10-29 03:00:00 7 5 Nordeste 8 Nordeste 0 933.8 -- 98
2020-10-29 02:00:00 5.8 0 Calma 8 Nordeste 0 933.6 -- 98
2020-10-29 01:00:00 4.8 5 Sur 8 Sur 0 933.6 -- 98
2020-10-29 00:00:00 5.3 4 Norte 5 Norte 0 933.8 -- 97
2020-10-28 23:00:00 6.6 0 Calma 8 Sudeste 0 933.3 -- 96
2020-10-28 22:00:00 8.1 0 Calma 4 Oeste 0 933 -- 94
2020-10-28 21:00:00 9.4 0 Calma 11 Noroeste 0 932.9 -- 92
2020-10-28 20:00:00 10.7 8 Noroeste 11 Noroeste 0 932.6 -- 88
2020-10-28 19:00:00 11.1 5 Oeste -- -- 0 931.8 -- 87
2020-10-28 18:00:00 14.7 13 Noroeste 28 Noroeste 0 931.6 -- 72
2020-10-28 17:00:00 15.7 19 Noroeste 30 Noroeste 0 931.1 -- 67
2020-10-28 16:00:00 16.5 20 Oeste 33 Oeste 0 930.6 -- 63
2020-10-28 15:00:00 16.8 22 Oeste 37 Oeste 0 930.3 -- 65
2020-10-28 14:00:00 14.6 19 Sudoeste 32 Oeste 0 930.7 -- 85
2020-10-28 13:00:00 15.2 21 Oeste 41 Sudoeste 0 930.9 -- 80
2020-10-28 12:00:00 16.7 30 Sudoeste 41 Sudoeste 0 930.8 -- 73
2020-10-28 11:00:00 13.8 18 Sudoeste 24 Oeste 0 930.6 -- 86
2020-10-28 10:00:00 12.4 10 Sudoeste 17 Sudoeste 0 930.2 -- 91
2020-10-28 09:00:00 11.6 8 Sudoeste 15 Sudoeste 0 929.5 -- 92
2020-10-28 08:00:00 11 6 Sudoeste 11 Sudoeste 0 928.6 -- 93
2020-10-28 07:00:00 10.8 8 Sudoeste 13 Oeste 0 928.4 -- 93
2020-10-28 06:00:00 11 7 Sudoeste 15 Sudoeste 0 928.1 -- 91
2020-10-28 05:00:00 11.1 8 Sudoeste 13 Sudoeste 0 927.7 -- 91
2020-10-28 04:00:00 11 10 Sur 15 Sur 0 927.8 -- 92
2020-10-28 03:00:00 10.6 11 Sur 18 Sur 0 928 -- 93
2020-10-28 02:00:00 10.6 8 Sur 21 Sudoeste 0 928 -- 89
2020-10-28 01:00:00 10.2 10 Sudoeste 17 Sudoeste 0 928.2 -- 88
2020-10-28 00:00:00 10.3 13 Sur 22 Sudoeste 0 928.6 -- 88
2020-10-27 23:00:00 10.3 15 Sur 22 Sur 0 928.7 -- 85
2020-10-27 22:00:00 10.1 12 Sudoeste 17 Sudoeste 0 928.6 -- 85
2020-10-27 21:00:00 10.2 14 Sudoeste 28 Sudoeste 0 928.5 -- 83
2020-10-27 20:00:00 10.3 19 Sudoeste 28 Sudoeste 0 928.3 -- 81
2020-10-27 19:00:00 11.1 19 Sudoeste 26 Sudoeste 0 928.1 -- 76
2020-10-27 18:00:00 12.2 12 Sudoeste 21 Oeste 0 927.9 -- 73
2020-10-27 17:00:00 12.5 9 Oeste 28 Oeste 0 927.8 -- 75
2020-10-27 16:00:00 13 19 Oeste 35 Oeste 0 927.7 -- 66
2020-10-27 15:00:00 12.8 25 Oeste 37 Sudoeste 0 927.8 -- 66
2020-10-27 14:00:00 11.4 23 Oeste 41 Oeste 0 928.6 -- 70
2020-10-27 13:00:00 10.9 26 Oeste 46 Oeste 0 929.2 -- 74
2020-10-27 12:00:00 11.1 22 Oeste 33 Oeste 0 929.1 -- 75
2020-10-27 11:00:00 10 22 Oeste 33 Oeste 0 929 -- 77
2020-10-27 10:00:00 8.8 19 Sudoeste 28 Oeste 0 928.9 -- 83
2020-10-27 09:00:00 7.8 17 Sudoeste 24 Oeste 0 928.7 -- 87
2020-10-27 08:00:00 6.9 14 Sudoeste 21 Sudoeste 0 928.4 -- 87
2020-10-27 07:00:00 6.4 9 Oeste 17 Oeste 0 928.4 -- 89
2020-10-27 06:00:00 5.9 13 Sudoeste 17 Oeste 0 928.4 -- 92
2020-10-27 05:00:00 5.5 9 Oeste 17 Oeste 0 928.3 -- 94
2020-10-27 04:00:00 5.4 8 Sudoeste 17 Oeste 0 928.5 -- 93
2020-10-27 03:00:00 3.6 12 Oeste 15 Oeste 0 929 -- 93
2020-10-27 02:00:00 3.8 13 Oeste 17 Oeste 0 929.3 -- 93
2020-10-27 01:00:00 4.1 10 Oeste 18 Oeste 0 929.5 -- 92
2020-10-27 00:00:00 4 11 Oeste 17 Oeste 0 929.7 -- 91
2020-10-26 23:00:00 4 13 Oeste 17 Oeste 0 929.8 -- 90
2020-10-26 22:00:00 4.4 12 Oeste 15 Oeste 0 929.4 -- 88
2020-10-26 21:00:00 5.6 8 Oeste 15 Oeste 0 929.4 -- 83
2020-10-26 20:00:00 7.3 13 Oeste 18 Oeste 0 928.9 -- 75
2020-10-26 19:00:00 8.8 10 Oeste 18 Oeste 0 928.7 -- 68
2020-10-26 18:00:00 9.7 10 Oeste 32 Oeste 0 928.4 -- 62
2020-10-26 17:00:00 10.8 23 Oeste 35 Oeste 0 928.3 -- 54
2020-10-26 16:00:00 11.3 21 Oeste 37 Oeste 0 927.9 -- 55
2020-10-26 15:00:00 11 27 Oeste 41 Oeste 0 928.1 -- 57
2020-10-26 14:00:00 10.7 22 Noroeste 35 Oeste 0 928.3 -- 58
2020-10-26 13:00:00 10.6 22 Oeste 35 Oeste 0 928.4 -- 61
2020-10-26 12:00:00 9.1 21 Oeste 30 Oeste 0 928.6 -- 68
2020-10-26 11:00:00 7.5 19 Oeste 35 Oeste 0 928.3 -- 75
2020-10-26 10:00:00 6.3 19 Oeste 30 Oeste 0 928 -- 81
2020-10-26 09:00:00 5.6 13 Oeste 21 Oeste 0 927.4 -- 88
2020-10-26 08:00:00 4.9 14 Oeste 32 Oeste 0 926 -- 88
2020-10-26 07:00:00 5 18 Oeste 32 Oeste 0 925.3 -- 91
2020-10-26 06:00:00 5.2 19 Oeste 32 Noroeste 0 924.7 -- 88
2020-10-26 05:00:00 5.3 18 Oeste 26 Oeste 0 924 -- 91
2020-10-26 04:00:00 5.5 13 Oeste 30 Oeste 0 923.9 -- 91
2020-10-26 03:00:00 5.6 13 Oeste 26 Oeste 0 923.9 -- 89
2020-10-26 02:00:00 5.6 14 Oeste 22 Oeste 0 923.7 -- 89
2020-10-26 01:00:00 6.1 11 Oeste 17 Oeste 0 923.8 -- 92
2020-10-26 00:00:00 5.6 11 Oeste 24 Sudoeste 0 923.8 -- 91